createdAt,value
2023-07-24T00:00:00.157Z,11.45
2023-07-24T00:02:27.259Z,11.93
2023-07-24T00:04:54.080Z,11.98
2023-07-24T00:07:20.858Z,10.43
2023-07-24T00:09:47.614Z,11.45
2023-07-24T00:12:14.498Z,11.45
2023-07-24T00:14:41.209Z,11.90
2023-07-24T00:17:08.194Z,17.35
2023-07-24T00:19:34.972Z,13.48
2023-07-24T00:22:01.787Z,11.57
2023-07-24T00:24:28.557Z,13.80
2023-07-24T00:26:55.428Z,12.18
2023-07-24T00:29:22.214Z,13.38
2023-07-24T00:31:48.937Z,9.43
2023-07-24T00:34:15.760Z,14.55
2023-07-24T00:36:42.508Z,12.40
2023-07-24T00:39:09.200Z,11.93
2023-07-24T00:41:35.955Z,15.07
2023-07-24T00:44:02.719Z,11.20
2023-07-24T00:46:33.895Z,12.05
2023-07-24T00:49:02.185Z,12.73
2023-07-24T00:51:31.416Z,13.95
2023-07-24T00:53:59.190Z,10.63
2023-07-24T00:56:25.937Z,13.00
2023-07-24T00:58:56.803Z,12.35
2023-07-24T01:01:23.699Z,14.13
2023-07-24T01:03:51.115Z,14.63
2023-07-24T01:06:17.854Z,11.35
2023-07-24T01:08:44.597Z,13.23
2023-07-24T01:11:17.371Z,11.88
2023-07-24T01:16:19.815Z,15.50
2023-07-24T01:18:46.902Z,14.98
2023-07-24T01:21:15.049Z,14.23
2023-07-24T01:24:07.671Z,13.32
2023-07-24T01:26:34.443Z,13.05
2023-07-24T01:29:01.207Z,13.60
2023-07-24T01:31:28.329Z,12.57
2023-07-24T01:33:55.108Z,12.57
2023-07-24T01:36:21.986Z,12.75
2023-07-24T01:38:50.788Z,14.10
2023-07-24T01:41:18.004Z,12.50
2023-07-24T01:43:44.769Z,13.65
2023-07-24T01:46:11.724Z,13.88
2023-07-24T01:48:38.491Z,11.82
2023-07-24T01:51:05.281Z,10.45
2023-07-24T01:53:32.059Z,12.27
2023-07-24T01:55:59.762Z,13.18
2023-07-24T01:58:26.560Z,13.88
2023-07-24T02:00:56.577Z,16.60
2023-07-24T02:03:23.407Z,14.02
2023-07-24T02:05:51.880Z,14.00
2023-07-24T02:08:18.904Z,11.52
2023-07-24T02:10:49.824Z,12.48
2023-07-24T02:13:16.563Z,12.23
2023-07-24T02:15:49.198Z,14.00
2023-07-24T02:18:16.021Z,14.27
2023-07-24T02:20:42.813Z,11.85
2023-07-24T02:23:10.074Z,12.07
2023-07-24T02:25:37.030Z,11.52
2023-07-24T02:28:03.821Z,12.23
2023-07-24T02:30:30.777Z,14.57
2023-07-24T02:32:58.235Z,14.60
2023-07-24T02:35:25.126Z,14.70
2023-07-24T02:37:51.847Z,11.68
2023-07-24T02:40:18.646Z,14.20
2023-07-24T02:42:45.408Z,15.80
2023-07-24T02:45:13.032Z,15.48
2023-07-24T02:47:39.817Z,14.27
2023-07-24T02:50:06.945Z,12.32
2023-07-24T02:52:33.725Z,11.95
2023-07-24T02:55:00.538Z,11.98
2023-07-24T02:57:27.278Z,11.98
2023-07-24T02:59:54.181Z,16.33
2023-07-24T03:02:21.104Z,11.35
2023-07-24T03:04:47.855Z,13.45
2023-07-24T03:07:14.627Z,16.00
2023-07-24T03:09:41.447Z,14.77
2023-07-24T03:12:08.342Z,11.77
2023-07-24T03:14:35.047Z,14.90
2023-07-24T03:17:03.438Z,14.30
2023-07-24T03:19:30.544Z,13.43
2023-07-24T03:21:57.272Z,13.38
2023-07-24T03:24:24.097Z,13.93
2023-07-24T03:26:50.934Z,12.82
2023-07-24T03:29:17.660Z,12.88
2023-07-24T03:31:44.471Z,12.25
2023-07-24T03:34:11.256Z,19.65
2023-07-24T03:36:42.285Z,15.07
2023-07-24T03:39:12.813Z,14.07
2023-07-24T03:41:40.294Z,16.50
2023-07-24T03:44:07.016Z,17.67
2023-07-24T03:46:34.140Z,15.40
2023-07-24T03:49:00.978Z,17.48
2023-07-24T03:51:28.055Z,15.02
2023-07-24T03:53:55.245Z,13.85
2023-07-24T03:56:22.035Z,13.55
2023-07-24T03:58:48.834Z,15.10
2023-07-24T04:01:15.697Z,14.63
2023-07-24T04:03:42.445Z,15.48
2023-07-24T04:06:09.204Z,13.57
2023-07-24T04:08:35.947Z,17.13
2023-07-24T04:11:02.810Z,15.20
2023-07-24T04:13:29.798Z,15.38
2023-07-24T04:15:58.547Z,16.15
2023-07-24T04:18:25.317Z,11.98
2023-07-24T04:20:52.114Z,13.35
2023-07-24T04:23:18.908Z,17.88
2023-07-24T04:25:45.710Z,16.27
2023-07-24T04:28:12.550Z,15.15
2023-07-24T04:30:39.579Z,15.98
2023-07-24T04:33:06.541Z,17.23
2023-07-24T04:35:33.405Z,19.35
2023-07-24T04:38:00.103Z,17.65
2023-07-24T04:40:26.876Z,18.02
2023-07-24T04:42:53.765Z,16.42
2023-07-24T04:45:23.759Z,19.85
2023-07-24T04:47:51.082Z,17.92
2023-07-24T04:50:17.904Z,19.27
2023-07-24T04:52:44.860Z,19.60
2023-07-24T04:55:11.868Z,18.48
2023-07-24T04:57:38.666Z,20.73
2023-07-24T05:00:06.286Z,17.73
2023-07-24T05:02:32.989Z,18.50
2023-07-24T05:04:59.739Z,19.15
2023-07-24T05:07:26.703Z,19.33
2023-07-24T05:09:53.442Z,15.73
2023-07-24T05:12:20.399Z,16.92
2023-07-24T05:14:47.084Z,18.20
2023-07-24T05:17:13.910Z,20.90
2023-07-24T05:19:40.745Z,16.60
2023-07-24T05:22:07.507Z,22.48
2023-07-24T05:24:34.565Z,21.42
2023-07-24T05:27:01.385Z,20.98
2023-07-24T05:29:28.113Z,17.13
2023-07-24T05:31:55.140Z,19.33
2023-07-24T05:34:22.194Z,21.02
2023-07-24T05:36:48.948Z,20.15
2023-07-24T05:39:15.723Z,21.48
2023-07-24T05:41:42.508Z,18.52
2023-07-24T05:44:09.322Z,17.67
2023-07-24T05:46:36.132Z,19.67
2023-07-24T05:49:03.001Z,18.50
2023-07-24T05:51:29.854Z,18.90
2023-07-24T05:53:56.613Z,19.65
2023-07-24T05:56:23.414Z,21.15
2023-07-24T05:58:50.926Z,18.88
2023-07-24T06:01:17.689Z,20.85
2023-07-24T06:03:44.620Z,19.10
2023-07-24T06:06:11.446Z,17.92
2023-07-24T06:08:38.176Z,20.67
2023-07-24T06:11:04.935Z,19.92
2023-07-24T06:13:31.686Z,20.20
2023-07-24T06:15:58.552Z,19.27
2023-07-24T06:18:25.408Z,18.52
2023-07-24T06:20:55.630Z,18.48
2023-07-24T06:23:22.442Z,26.17
2023-07-24T06:25:49.285Z,20.73
2023-07-24T06:28:16.068Z,21.25
2023-07-24T06:30:43.012Z,20.77
2023-07-24T06:33:09.777Z,21.30
2023-07-24T06:35:36.793Z,20.80
2023-07-24T06:38:03.576Z,19.35
2023-07-24T06:40:30.339Z,19.13
2023-07-24T06:42:57.083Z,19.23
2023-07-24T06:45:23.929Z,22.70
2023-07-24T06:47:50.729Z,16.88
2023-07-24T06:50:17.435Z,18.17
2023-07-24T06:52:44.140Z,20.58
2023-07-24T06:55:10.956Z,17.77
2023-07-24T06:57:37.654Z,19.73
2023-07-24T07:00:04.568Z,19.95
2023-07-24T07:02:32.305Z,21.67
2023-07-24T07:04:59.118Z,20.40
2023-07-24T07:07:25.956Z,18.88
2023-07-24T07:09:52.704Z,22.10
2023-07-24T07:12:22.024Z,22.73
2023-07-24T07:14:49.036Z,23.60
2023-07-24T07:17:15.862Z,26.77
2023-07-24T07:19:42.626Z,20.92
2023-07-24T07:22:09.437Z,31.55
2023-07-24T07:24:36.229Z,22.55
2023-07-24T07:27:02.985Z,21.75
2023-07-24T07:29:29.689Z,21.88
2023-07-24T07:31:56.415Z,21.80
2023-07-24T07:34:23.198Z,22.42
2023-07-24T07:36:50.012Z,23.13
2023-07-24T07:39:16.796Z,25.33
2023-07-24T07:41:43.569Z,24.45
2023-07-24T07:44:10.297Z,29.73
2023-07-24T07:46:37.056Z,21.80
2023-07-24T07:49:03.828Z,23.02
2023-07-24T07:51:30.757Z,22.02
2023-07-24T07:53:57.515Z,21.30
2023-07-24T07:56:24.258Z,24.48
2023-07-24T07:58:51.058Z,21.15
2023-07-24T08:01:17.994Z,23.63
2023-07-24T08:03:44.887Z,28.88
2023-07-24T08:06:11.672Z,25.75
2023-07-24T08:08:38.453Z,33.33
2023-07-24T08:11:08.582Z,30.48
2023-07-24T08:13:35.802Z,26.63
2023-07-24T08:16:04.217Z,33.05
2023-07-24T08:18:31.747Z,35.83
2023-07-24T08:20:58.602Z,33.38
2023-07-24T08:23:25.345Z,29.75
2023-07-24T08:25:53.841Z,30.30
2023-07-24T08:28:21.080Z,31.05
2023-07-24T08:30:56.685Z,28.75
2023-07-24T08:33:23.570Z,34.80
2023-07-24T08:36:00.460Z,33.20
2023-07-24T08:38:27.681Z,31.10
2023-07-24T08:41:08.917Z,37.55
2023-07-24T08:43:36.975Z,27.65
2023-07-24T08:46:04.927Z,37.42
2023-07-24T08:48:50.117Z,35.63
2023-07-24T08:51:17.440Z,38.88
2023-07-24T08:53:44.978Z,35.70
2023-07-24T08:56:15.867Z,38.13
2023-07-24T08:58:43.022Z,33.75
2023-07-24T09:01:10.235Z,35.58
2023-07-24T09:03:37.354Z,37.53
2023-07-24T09:06:13.621Z,37.72
2023-07-24T09:08:44.546Z,43.72
2023-07-24T09:11:12.273Z,34.85
2023-07-24T09:13:43.206Z,36.88
2023-07-24T09:16:10.868Z,33.42
2023-07-24T09:18:42.171Z,36.30
2023-07-24T09:21:09.731Z,39.35
2023-07-24T09:23:36.565Z,35.55
2023-07-24T09:26:07.401Z,39.78
2023-07-24T09:28:35.025Z,42.17
2023-07-24T09:31:02.085Z,43.58
2023-07-24T09:33:47.428Z,37.42
2023-07-24T09:36:14.314Z,46.92
2023-07-24T09:38:41.849Z,44.88
2023-07-24T09:41:08.864Z,45.53
2023-07-24T09:43:40.542Z,35.35
2023-07-24T09:48:41.626Z,46.80
2023-07-24T09:51:13.239Z,45.47
2023-07-24T09:53:44.790Z,40.03
2023-07-24T09:56:11.817Z,42.85
2023-07-24T09:58:39.802Z,40.72
2023-07-24T10:01:08.729Z,41.47
2023-07-24T10:03:47.697Z,45.88
2023-07-24T10:06:16.381Z,38.97
2023-07-24T10:08:43.833Z,41.90
2023-07-24T10:11:14.689Z,41.97
2023-07-24T10:13:42.176Z,43.30
2023-07-24T10:16:09.259Z,45.25
2023-07-24T10:18:42.481Z,46.90
2023-07-24T10:21:10.415Z,46.38
2023-07-24T10:23:39.027Z,41.33
2023-07-24T10:26:06.728Z,36.60
2023-07-24T10:28:42.359Z,34.25
2023-07-24T10:31:23.919Z,36.03
2023-07-24T10:33:52.219Z,34.80
2023-07-24T10:36:20.788Z,38.05
2023-07-24T10:38:48.508Z,37.92
2023-07-24T10:41:15.600Z,39.58
2023-07-24T10:43:48.841Z,42.42
2023-07-24T10:46:18.331Z,44.78
2023-07-24T10:48:50.191Z,45.10
2023-07-24T10:51:17.110Z,45.47
2023-07-24T10:53:46.964Z,40.97
2023-07-24T10:56:13.757Z,44.55
2023-07-24T10:58:40.540Z,40.90
2023-07-24T11:01:08.401Z,42.55
2023-07-24T11:03:42.785Z,45.63
2023-07-24T11:06:17.061Z,38.45
2023-07-24T11:08:53.153Z,42.45
2023-07-24T11:11:19.908Z,39.55
2023-07-24T11:13:46.622Z,45.35
2023-07-24T11:16:13.464Z,46.65
2023-07-24T11:18:53.856Z,45.00
2023-07-24T11:21:26.201Z,45.25
2023-07-24T11:23:56.980Z,47.58
2023-07-24T11:26:24.977Z,41.45
2023-07-24T11:28:52.610Z,41.33
2023-07-24T11:31:22.636Z,46.88
2023-07-24T11:33:53.484Z,42.75
2023-07-24T11:36:20.330Z,37.72
2023-07-24T11:38:47.559Z,47.58
2023-07-24T11:41:15.241Z,47.17
2023-07-24T11:43:49.897Z,46.58
2023-07-24T11:46:43.146Z,48.28
2023-07-24T11:51:38.174Z,40.17
2023-07-24T11:54:08.235Z,48.47
2023-07-24T11:56:35.052Z,45.20
2023-07-24T11:59:14.663Z,45.33
2023-07-24T12:01:42.115Z,40.78
2023-07-24T12:04:08.965Z,44.17
2023-07-24T12:06:36.865Z,41.67
2023-07-24T12:09:05.855Z,45.08
2023-07-24T12:11:33.507Z,40.88
2023-07-24T12:14:00.351Z,41.95
2023-07-24T12:16:27.134Z,33.58
2023-07-24T12:18:53.908Z,34.28
2023-07-24T12:21:20.609Z,36.38
2023-07-24T12:23:47.359Z,39.20
2023-07-24T12:26:14.161Z,37.15
2023-07-24T12:28:40.885Z,37.35
2023-07-24T12:31:07.851Z,39.40
2023-07-24T12:33:34.717Z,32.40
2023-07-24T12:36:02.721Z,33.40
2023-07-24T12:38:29.583Z,31.23
2023-07-24T12:40:56.347Z,35.80
2023-07-24T12:43:23.052Z,33.92
2023-07-24T12:45:49.814Z,35.78
2023-07-24T12:48:18.557Z,32.35
2023-07-24T12:50:45.302Z,38.25
2023-07-24T12:53:13.055Z,36.08
2023-07-24T12:55:43.684Z,27.90
2023-07-24T12:58:10.447Z,34.53
2023-07-24T13:00:37.178Z,31.75
2023-07-24T13:03:04.185Z,32.38
2023-07-24T13:05:31.963Z,35.25
2023-07-24T13:07:58.828Z,30.38
2023-07-24T13:10:25.732Z,29.50
2023-07-24T13:12:52.474Z,30.92
2023-07-24T13:15:19.289Z,27.38
2023-07-24T13:17:46.036Z,29.63
2023-07-24T13:20:12.970Z,28.08
2023-07-24T13:22:39.738Z,24.85
2023-07-24T13:25:07.584Z,25.98
2023-07-24T13:27:34.373Z,27.65
2023-07-24T13:30:01.105Z,27.15
2023-07-24T13:32:27.825Z,24.75
2023-07-24T13:34:54.646Z,31.10
2023-07-24T13:37:22.516Z,28.27
2023-07-24T13:39:49.289Z,27.45
2023-07-24T13:42:16.016Z,25.45
2023-07-24T13:44:42.744Z,24.55
2023-07-24T13:47:09.460Z,24.60
2023-07-24T13:49:36.198Z,28.02
2023-07-24T13:52:02.950Z,23.70
2023-07-24T13:54:29.677Z,24.10
2023-07-24T13:56:56.483Z,23.95
2023-07-24T13:59:23.348Z,27.52
2023-07-24T14:01:50.272Z,24.85
2023-07-24T14:04:17.117Z,22.50
2023-07-24T14:06:43.878Z,24.50
2023-07-24T14:09:12.915Z,24.50
2023-07-24T14:11:39.629Z,22.50
2023-07-24T14:14:06.449Z,25.70
2023-07-24T14:16:33.336Z,18.92
2023-07-24T14:19:00.149Z,23.40
2023-07-24T14:21:26.957Z,20.95
2023-07-24T14:23:53.779Z,22.30
2023-07-24T14:26:20.637Z,26.05
2023-07-24T14:28:47.450Z,22.90
2023-07-24T14:31:14.230Z,22.23
2023-07-24T14:33:41.151Z,19.35
2023-07-24T14:36:08.126Z,22.63
2023-07-24T14:38:34.898Z,22.90
2023-07-24T14:41:01.687Z,21.55
2023-07-24T14:43:28.729Z,22.58
2023-07-24T14:45:55.617Z,19.27
2023-07-24T14:48:22.598Z,22.65
2023-07-24T14:50:50.497Z,23.10
2023-07-24T14:53:17.256Z,23.02
2023-07-24T14:55:44.280Z,24.35
2023-07-24T14:58:11.100Z,26.42
2023-07-24T15:00:37.890Z,19.73
2023-07-24T15:03:04.761Z,24.73
2023-07-24T15:05:31.649Z,18.75
2023-07-24T15:07:58.581Z,24.15
2023-07-24T15:10:25.275Z,22.65
2023-07-24T15:12:52.166Z,20.65
2023-07-24T15:15:18.924Z,20.77
2023-07-24T15:17:45.761Z,20.15
2023-07-24T15:20:14.323Z,23.45
2023-07-24T15:22:41.597Z,20.98
2023-07-24T15:25:08.703Z,20.45
2023-07-24T15:27:35.594Z,27.80
2023-07-24T15:30:02.412Z,25.33
2023-07-24T15:32:29.718Z,31.75
2023-07-24T15:34:56.697Z,24.85
2023-07-24T15:37:23.453Z,26.73
2023-07-24T15:39:50.275Z,24.50
2023-07-24T15:42:17.059Z,26.17
2023-07-24T15:44:43.860Z,31.27
2023-07-24T15:47:10.787Z,29.55
2023-07-24T15:49:37.640Z,20.75
2023-07-24T15:52:04.889Z,25.90
2023-07-24T15:54:31.783Z,25.40
2023-07-24T15:56:58.509Z,23.90
2023-07-24T15:59:26.376Z,25.25
2023-07-24T16:01:53.283Z,21.58
2023-07-24T16:04:22.545Z,24.90
2023-07-24T16:06:49.453Z,26.95
2023-07-24T16:09:16.288Z,25.15
2023-07-24T16:11:44.870Z,24.02
2023-07-24T16:14:13.770Z,22.85
2023-07-24T16:16:40.556Z,27.38
2023-07-24T16:19:17.313Z,24.10
2023-07-24T16:21:45.618Z,31.67
2023-07-24T16:24:12.799Z,22.77
2023-07-24T16:26:40.039Z,23.23
2023-07-24T16:29:07.088Z,26.65
2023-07-24T16:31:36.149Z,27.27
2023-07-24T16:34:03.677Z,23.35
2023-07-24T16:36:36.415Z,23.27
2023-07-24T16:39:05.233Z,26.02
2023-07-24T16:41:33.331Z,23.92
2023-07-24T16:44:02.063Z,24.58
2023-07-24T16:46:30.576Z,23.73
2023-07-24T16:48:57.312Z,23.00
2023-07-24T16:51:24.052Z,21.90
2023-07-24T16:53:50.789Z,25.70
2023-07-24T16:56:17.684Z,21.48
2023-07-24T16:58:44.762Z,24.15
2023-07-24T17:01:11.693Z,23.13
2023-07-24T17:03:38.493Z,23.70
2023-07-24T17:06:05.327Z,19.80
2023-07-24T17:08:32.404Z,16.38
2023-07-24T17:10:59.268Z,18.77
2023-07-24T17:13:26.297Z,15.90
2023-07-24T17:15:53.129Z,19.17
2023-07-24T17:18:19.947Z,15.93
2023-07-24T17:20:50.221Z,16.58
2023-07-24T17:23:17.009Z,16.65
2023-07-24T17:25:44.186Z,13.63
2023-07-24T17:28:11.065Z,14.30
2023-07-24T17:30:38.240Z,15.38
2023-07-24T17:33:05.072Z,13.23
2023-07-24T17:35:31.943Z,13.43
2023-07-24T17:37:58.747Z,12.55
2023-07-24T17:40:25.699Z,13.73
2023-07-24T17:42:52.583Z,13.07
2023-07-24T17:45:19.639Z,14.55
2023-07-24T17:47:46.553Z,9.10
2023-07-24T17:50:13.342Z,16.25
2023-07-24T17:52:40.045Z,10.40
2023-07-24T17:55:07.024Z,14.27
2023-07-24T17:57:34.195Z,10.68
2023-07-24T18:00:01.036Z,11.82
2023-07-24T18:02:28.015Z,7.65
2023-07-24T18:04:54.797Z,8.27
2023-07-24T18:07:21.529Z,8.85
2023-07-24T18:09:48.302Z,7.60
2023-07-24T18:12:15.570Z,8.35
2023-07-24T18:14:42.393Z,7.30
2023-07-24T18:17:09.159Z,11.32
2023-07-24T18:19:35.891Z,7.85
2023-07-24T18:22:02.607Z,5.75
2023-07-24T18:24:29.348Z,7.38
2023-07-24T18:26:56.468Z,11.13
2023-07-24T18:29:23.182Z,6.68
2023-07-24T18:31:50.088Z,5.97
2023-07-24T18:34:17.001Z,5.70
2023-07-24T18:36:43.858Z,5.07
2023-07-24T18:39:10.592Z,5.60
2023-07-24T18:41:37.426Z,5.53
2023-07-24T18:44:04.133Z,6.05
2023-07-24T18:46:30.960Z,7.68
2023-07-24T18:48:57.798Z,4.90
2023-07-24T18:51:24.529Z,6.43
2023-07-24T18:53:52.828Z,4.43
2023-07-24T18:56:19.845Z,4.05
2023-07-24T18:58:49.666Z,6.72
2023-07-24T19:01:16.592Z,6.00
2023-07-24T19:03:44.401Z,6.82
2023-07-24T19:06:11.346Z,6.20
2023-07-24T19:08:38.138Z,8.40
2023-07-24T19:11:05.132Z,5.72
2023-07-24T19:13:36.473Z,6.57
2023-07-24T19:16:04.205Z,7.83
2023-07-24T19:18:31.213Z,17.30
2023-07-24T19:20:58.103Z,6.60
2023-07-24T19:23:24.940Z,5.72
2023-07-24T19:25:51.828Z,5.05
2023-07-24T19:28:18.648Z,7.00
2023-07-24T19:30:52.483Z,9.05
2023-07-24T19:33:19.386Z,6.75
2023-07-24T19:35:46.166Z,6.90
2023-07-24T19:38:13.111Z,11.60
2023-07-24T19:40:40.354Z,7.90
2023-07-24T19:43:07.120Z,6.20
2023-07-24T19:45:39.352Z,7.97
2023-07-24T19:48:06.530Z,5.13
2023-07-24T19:50:33.359Z,5.97
2023-07-24T19:53:00.136Z,8.70
2023-07-24T19:55:26.837Z,6.55
2023-07-24T19:57:53.598Z,7.15
2023-07-24T20:00:20.706Z,7.43
2023-07-24T20:02:48.072Z,7.97
2023-07-24T20:05:14.942Z,8.38
2023-07-24T20:07:41.684Z,7.25
2023-07-24T20:10:08.648Z,9.43
2023-07-24T20:12:35.494Z,6.43
2023-07-24T20:15:02.596Z,7.93
2023-07-24T20:17:29.436Z,11.85
2023-07-24T20:19:56.141Z,7.28
2023-07-24T20:22:22.879Z,6.88
2023-07-24T20:24:49.705Z,8.70
2023-07-24T20:27:16.518Z,12.82
2023-07-24T20:29:43.283Z,15.77
2023-07-24T20:32:10.215Z,8.90
2023-07-24T20:34:37.079Z,7.07
2023-07-24T20:37:03.988Z,7.28
2023-07-24T20:39:30.799Z,12.20
2023-07-24T20:41:57.555Z,7.20
2023-07-24T20:44:24.244Z,6.82
2023-07-24T20:46:51.016Z,8.52
2023-07-24T20:49:17.729Z,7.28
2023-07-24T20:51:44.455Z,7.32
2023-07-24T20:54:11.212Z,9.55
2023-07-24T20:56:38.237Z,7.82
2023-07-24T20:59:05.013Z,4.85
2023-07-24T21:01:32.034Z,7.53
2023-07-24T21:03:58.880Z,5.85
2023-07-24T21:06:25.692Z,8.50
2023-07-24T21:08:52.495Z,9.95
2023-07-24T21:11:19.399Z,6.78
2023-07-24T21:13:46.136Z,8.10
2023-07-24T21:16:12.885Z,8.02
2023-07-24T21:18:39.682Z,10.45
2023-07-24T21:21:08.504Z,7.78
2023-07-24T21:23:35.525Z,6.55
2023-07-24T21:26:02.422Z,7.18
2023-07-24T21:28:29.264Z,11.55
2023-07-24T21:30:56.160Z,9.50
2023-07-24T21:33:22.994Z,12.38
2023-07-24T21:36:02.798Z,6.93
2023-07-24T21:38:29.855Z,10.15
2023-07-24T21:40:56.765Z,8.02
2023-07-24T21:43:23.827Z,10.18
2023-07-24T21:45:52.643Z,11.90
2023-07-24T21:48:19.385Z,11.90
2023-07-24T21:50:52.281Z,6.75
2023-07-24T21:53:19.130Z,7.20
2023-07-24T21:55:45.941Z,15.35
2023-07-24T21:58:12.781Z,6.70
2023-07-24T22:00:39.654Z,8.82
2023-07-24T22:03:06.565Z,5.82
2023-07-24T22:05:33.499Z,8.65
2023-07-24T22:08:00.316Z,9.50
2023-07-24T22:10:28.221Z,9.38
2023-07-24T22:12:55.064Z,9.02
2023-07-24T22:15:21.813Z,10.75
2023-07-24T22:17:48.608Z,7.07
2023-07-24T22:20:26.961Z,10.02
2023-07-24T22:22:57.612Z,8.98
2023-07-24T22:25:24.633Z,9.63
2023-07-24T22:27:51.342Z,10.98
2023-07-24T22:30:18.103Z,9.57
2023-07-24T22:32:44.983Z,8.45
2023-07-24T22:35:11.808Z,14.57
2023-07-24T22:37:38.583Z,8.80
2023-07-24T22:40:06.005Z,10.70
2023-07-24T22:42:32.920Z,11.68
2023-07-24T22:44:59.700Z,9.80
2023-07-24T22:47:26.587Z,6.65
2023-07-24T22:49:53.435Z,9.15
2023-07-24T22:52:20.300Z,9.45
2023-07-24T22:54:47.009Z,14.70
2023-07-24T22:57:13.728Z,8.73
2023-07-24T22:59:40.484Z,10.77
2023-07-24T23:02:07.285Z,6.13
2023-07-24T23:04:34.005Z,10.15
2023-07-24T23:07:00.847Z,8.70
2023-07-24T23:09:46.391Z,7.03
2023-07-24T23:13:27.918Z,9.07
2023-07-24T23:16:35.117Z,11.68
2023-07-24T23:19:20.510Z,8.75
2023-07-24T23:21:47.331Z,7.57
2023-07-24T23:24:14.193Z,8.10
2023-07-24T23:26:41.035Z,14.90
2023-07-24T23:29:07.929Z,11.32
2023-07-24T23:31:34.724Z,8.25
2023-07-24T23:34:01.588Z,8.23
2023-07-24T23:36:28.495Z,13.40
2023-07-24T23:38:55.360Z,7.90
2023-07-24T23:41:22.165Z,7.57
2023-07-24T23:43:48.916Z,9.50
2023-07-24T23:46:16.580Z,9.15
2023-07-24T23:48:44.164Z,12.50
2023-07-24T23:51:21.899Z,10.25
2023-07-24T23:53:49.236Z,9.70
2023-07-24T23:56:16.261Z,7.20
2023-07-24T23:58:43.047Z,9.82
